sensor_id;sensor_type;location;lat;lon;timestamp;pressure;altitude;pressure_sealevel;temperature;humidity
73171;BME280;61381;50.118;19.962;2023-08-24T00:04:17;98725.38;;;19.66;100.00
73171;BME280;61381;50.118;19.962;2023-08-24T00:09:18;98734.09;;;19.59;100.00
73171;BME280;61381;50.118;19.962;2023-08-24T00:14:19;98737.84;;;19.55;100.00
73171;BME280;61381;50.118;19.962;2023-08-24T00:19:21;98732.31;;;19.64;100.00
73171;BME280;61381;50.118;19.962;2023-08-24T00:24:22;98728.09;;;19.54;100.00
73171;BME280;61381;50.118;19.962;2023-08-24T00:29:23;98732.38;;;19.30;100.00
73171;BME280;61381;50.118;19.962;2023-08-24T00:34:25;98731.38;;;19.01;100.00
73171;BME280;61381;50.118;19.962;2023-08-24T00:39:26;98735.84;;;19.18;100.00
73171;BME280;61381;50.118;19.962;2023-08-24T00:44:26;98738.59;;;18.97;100.00
73171;BME280;61381;50.118;19.962;2023-08-24T00:49:29;98728.41;;;18.94;100.00
73171;BME280;61381;50.118;19.962;2023-08-24T00:54:30;98727.41;;;18.78;100.00
73171;BME280;61381;50.118;19.962;2023-08-24T00:59:31;98730.97;;;18.69;100.00
73171;BME280;61381;50.118;19.962;2023-08-24T01:04:34;98734.13;;;18.59;100.00
73171;BME280;61381;50.118;19.962;2023-08-24T01:09:35;98731.91;;;18.52;100.00
73171;BME280;61381;50.118;19.962;2023-08-24T01:14:41;98729.28;;;18.23;100.00
73171;BME280;61381;50.118;19.962;2023-08-24T01:19:47;98723.09;;;18.13;100.00
73171;BME280;61381;50.118;19.962;2023-08-24T01:24:53;98729.34;;;18.56;100.00
73171;BME280;61381;50.118;19.962;2023-08-24T01:29:56;98726.44;;;18.61;100.00
73171;BME280;61381;50.118;19.962;2023-08-24T01:34:57;98715.22;;;18.21;100.00
73171;BME280;61381;50.118;19.962;2023-08-24T01:40:03;98720.31;;;18.22;100.00
73171;BME280;61381;50.118;19.962;2023-08-24T01:45:07;98717.94;;;17.99;100.00
73171;BME280;61381;50.118;19.962;2023-08-24T01:50:09;98717.41;;;18.06;100.00
73171;BME280;61381;50.118;19.962;2023-08-24T01:55:11;98711.91;;;17.85;100.00
73171;BME280;61381;50.118;19.962;2023-08-24T02:00:13;98715.47;;;17.77;100.00
73171;BME280;61381;50.118;19.962;2023-08-24T02:05:14;98709.84;;;17.82;100.00
73171;BME280;61381;50.118;19.962;2023-08-24T02:10:15;98717.06;;;17.78;100.00
73171;BME280;61381;50.118;19.962;2023-08-24T02:15:18;98707.91;;;17.53;100.00
73171;BME280;61381;50.118;19.962;2023-08-24T02:20:19;98710.84;;;17.30;100.00
73171;BME280;61381;50.118;19.962;2023-08-24T02:25:19;98713.03;;;17.45;100.00
73171;BME280;61381;50.118;19.962;2023-08-24T02:30:22;98713.72;;;17.34;100.00
73171;BME280;61381;50.118;19.962;2023-08-24T02:35:22;98715.81;;;17.28;100.00
73171;BME280;61381;50.118;19.962;2023-08-24T02:40:23;98716.00;;;17.23;100.00
73171;BME280;61381;50.118;19.962;2023-08-24T02:45:26;98704.66;;;17.29;100.00
73171;BME280;61381;50.118;19.962;2023-08-24T02:50:26;98711.97;;;17.29;100.00
73171;BME280;61381;50.118;19.962;2023-08-24T02:55:27;98713.09;;;17.28;100.00
73171;BME280;61381;50.118;19.962;2023-08-24T03:00:30;98719.16;;;17.25;100.00
73171;BME280;61381;50.118;19.962;2023-08-24T03:05:30;98715.53;;;17.03;100.00
73171;BME280;61381;50.118;19.962;2023-08-24T03:10:34;98714.91;;;16.89;100.00
73171;BME280;61381;50.118;19.962;2023-08-24T03:15:36;98718.56;;;16.93;100.00
73171;BME280;61381;50.118;19.962;2023-08-24T03:20:37;98717.13;;;16.78;100.00
73171;BME280;61381;50.118;19.962;2023-08-24T03:25:40;98721.44;;;16.70;100.00
73171;BME280;61381;50.118;19.962;2023-08-24T03:30:48;98719.03;;;16.69;100.00
73171;BME280;61381;50.118;19.962;2023-08-24T03:35:49;98727.81;;;16.57;100.00
73171;BME280;61381;50.118;19.962;2023-08-24T03:40:49;98732.88;;;16.50;100.00
73171;BME280;61381;50.118;19.962;2023-08-24T03:45:52;98736.19;;;16.29;100.00
73171;BME280;61381;50.118;19.962;2023-08-24T03:50:54;98732.75;;;16.46;100.00
73171;BME280;61381;50.118;19.962;2023-08-24T03:55:55;98731.44;;;16.61;100.00
73171;BME280;61381;50.118;19.962;2023-08-24T04:00:57;98731.59;;;16.73;100.00
73171;BME280;61381;50.118;19.962;2023-08-24T04:05:58;98729.56;;;16.62;100.00
73171;BME280;61381;50.118;19.962;2023-08-24T04:10:59;98739.25;;;16.71;100.00
73171;BME280;61381;50.118;19.962;2023-08-24T04:16:01;98745.13;;;16.73;100.00
73171;BME280;61381;50.118;19.962;2023-08-24T04:21:02;98744.34;;;16.73;100.00
73171;BME280;61381;50.118;19.962;2023-08-24T04:26:03;98743.72;;;16.85;100.00
73171;BME280;61381;50.118;19.962;2023-08-24T04:31:05;98741.00;;;17.02;100.00
73171;BME280;61381;50.118;19.962;2023-08-24T04:36:06;98738.16;;;16.99;100.00
73171;BME280;61381;50.118;19.962;2023-08-24T04:41:08;98731.72;;;17.38;100.00
73171;BME280;61381;50.118;19.962;2023-08-24T04:46:10;98744.88;;;19.10;96.16
73171;BME280;61381;50.118;19.962;2023-08-24T04:51:11;98744.66;;;21.04;84.60
73171;BME280;61381;50.118;19.962;2023-08-24T04:56:12;98750.59;;;22.69;74.74
73171;BME280;61381;50.118;19.962;2023-08-24T05:01:14;98767.75;;;24.21;66.70
73171;BME280;61381;50.118;19.962;2023-08-24T05:06:15;98766.00;;;25.68;61.20
73171;BME280;61381;50.118;19.962;2023-08-24T05:11:17;98777.53;;;27.43;54.16
73171;BME280;61381;50.118;19.962;2023-08-24T05:16:20;98784.56;;;28.73;49.35
73171;BME280;61381;50.118;19.962;2023-08-24T05:21:21;98790.03;;;30.87;43.93
73171;BME280;61381;50.118;19.962;2023-08-24T05:26:22;98789.56;;;30.19;45.68
73171;BME280;61381;50.118;19.962;2023-08-24T05:31:24;98798.63;;;31.27;42.90
73171;BME280;61381;50.118;19.962;2023-08-24T05:36:25;98791.28;;;30.82;44.33
73171;BME280;61381;50.118;19.962;2023-08-24T05:41:26;98797.38;;;32.10;42.12
73171;BME280;61381;50.118;19.962;2023-08-24T05:46:28;98795.66;;;31.41;43.59
73171;BME280;61381;50.118;19.962;2023-08-24T05:51:29;98787.22;;;28.98;49.01
73171;BME280;61381;50.118;19.962;2023-08-24T05:56:30;98793.50;;;30.22;46.09
73171;BME280;61381;50.118;19.962;2023-08-24T06:01:32;98782.50;;;28.99;50.63
73171;BME280;61381;50.118;19.962;2023-08-24T06:06:33;98783.09;;;28.11;52.99
73171;BME280;61381;50.118;19.962;2023-08-24T06:11:34;98788.97;;;28.45;52.01
73171;BME280;61381;50.118;19.962;2023-08-24T06:16:36;98775.44;;;26.19;58.48
73171;BME280;61381;50.118;19.962;2023-08-24T06:21:37;98777.28;;;24.88;64.92
73171;BME280;61381;50.118;19.962;2023-08-24T06:26:38;98772.28;;;24.10;68.65
73171;BME280;61381;50.118;19.962;2023-08-24T06:31:42;98767.44;;;23.99;68.05
73171;BME280;61381;50.118;19.962;2023-08-24T06:36:44;98767.38;;;23.73;69.76
73171;BME280;61381;50.118;19.962;2023-08-24T06:41:45;98767.84;;;23.32;69.84
73171;BME280;61381;50.118;19.962;2023-08-24T06:46:47;98768.81;;;24.13;69.58
73171;BME280;61381;50.118;19.962;2023-08-24T06:51:48;98776.84;;;23.79;70.09
73171;BME280;61381;50.118;19.962;2023-08-24T06:56:49;98778.63;;;24.71;69.19
73171;BME280;61381;50.118;19.962;2023-08-24T07:01:51;98773.63;;;24.50;69.23
73171;BME280;61381;50.118;19.962;2023-08-24T07:06:52;98786.38;;;24.96;66.95
73171;BME280;61381;50.118;19.962;2023-08-24T07:11:53;98784.28;;;24.85;66.08
73171;BME280;61381;50.118;19.962;2023-08-24T07:16:55;98787.78;;;25.95;63.79
73171;BME280;61381;50.118;19.962;2023-08-24T07:21:56;98797.69;;;26.66;60.58
73171;BME280;61381;50.118;19.962;2023-08-24T07:26:57;98799.88;;;26.39;62.36
73171;BME280;61381;50.118;19.962;2023-08-24T07:31:59;98786.38;;;26.15;64.36
73171;BME280;61381;50.118;19.962;2023-08-24T07:37:00;98799.22;;;28.05;57.78
73171;BME280;61381;50.118;19.962;2023-08-24T07:42:02;98798.09;;;29.31;51.99
73171;BME280;61381;50.118;19.962;2023-08-24T07:47:04;98802.72;;;29.52;51.28
73171;BME280;61381;50.118;19.962;2023-08-24T07:52:05;98801.81;;;30.60;47.63
73171;BME280;61381;50.118;19.962;2023-08-24T07:57:06;98804.06;;;30.69;48.16
73171;BME280;61381;50.118;19.962;2023-08-24T08:02:08;98804.25;;;30.54;49.73
73171;BME280;61381;50.118;19.962;2023-08-24T08:07:12;98795.44;;;29.13;54.42
73171;BME280;61381;50.118;19.962;2023-08-24T08:12:13;98796.09;;;27.96;57.55
73171;BME280;61381;50.118;19.962;2023-08-24T08:17:15;98801.97;;;28.38;55.87
73171;BME280;61381;50.118;19.962;2023-08-24T08:22:16;98789.00;;;27.84;56.40
73171;BME280;61381;50.118;19.962;2023-08-24T08:27:17;98792.56;;;27.96;58.35
73171;BME280;61381;50.118;19.962;2023-08-24T08:32:19;98780.72;;;27.70;58.32
73171;BME280;61381;50.118;19.962;2023-08-24T08:37:20;98778.38;;;27.72;60.26
73171;BME280;61381;50.118;19.962;2023-08-24T08:42:21;98775.13;;;27.27;64.60
73171;BME280;61381;50.118;19.962;2023-08-24T08:47:25;98772.91;;;29.25;55.77
73171;BME280;61381;50.118;19.962;2023-08-24T08:52:27;98793.69;;;31.69;47.66
73171;BME280;61381;50.118;19.962;2023-08-24T08:57:28;98788.88;;;32.21;46.22
73171;BME280;61381;50.118;19.962;2023-08-24T09:02:30;98797.97;;;31.74;43.52
73171;BME280;61381;50.118;19.962;2023-08-24T09:07:32;98784.34;;;32.07;44.13
73171;BME280;61381;50.118;19.962;2023-08-24T09:12:35;98795.53;;;32.27;41.49
73171;BME280;61381;50.118;19.962;2023-08-24T09:17:42;98792.84;;;33.40;36.70
73171;BME280;61381;50.118;19.962;2023-08-24T09:22:43;98781.25;;;31.50;38.16
73171;BME280;61381;50.118;19.962;2023-08-24T09:27:44;98774.56;;;30.58;41.40
73171;BME280;61381;50.118;19.962;2023-08-24T09:32:46;98779.72;;;32.00;36.83
73171;BME280;61381;50.118;19.962;2023-08-24T09:37:49;98781.72;;;32.43;37.93
73171;BME280;61381;50.118;19.962;2023-08-24T09:42:50;98777.66;;;32.04;38.78
73171;BME280;61381;50.118;19.962;2023-08-24T09:47:52;98768.22;;;31.23;42.89
73171;BME280;61381;50.118;19.962;2023-08-24T09:52:53;98772.84;;;31.61;40.32
73171;BME280;61381;50.118;19.962;2023-08-24T09:57:59;98778.88;;;32.03;35.43
73171;BME280;61381;50.118;19.962;2023-08-24T10:03:03;98782.59;;;33.37;35.72
73171;BME280;61381;50.118;19.962;2023-08-24T10:08:06;98769.97;;;32.35;36.43
73171;BME280;61381;50.118;19.962;2023-08-24T10:13:12;98775.38;;;32.23;38.30
73171;BME280;61381;50.118;19.962;2023-08-24T10:18:17;98771.66;;;32.53;38.79
73171;BME280;61381;50.118;19.962;2023-08-24T10:23:20;98763.69;;;31.64;41.36
73171;BME280;61381;50.118;19.962;2023-08-24T10:28:23;98765.03;;;31.52;40.84
73171;BME280;61381;50.118;19.962;2023-08-24T10:33:26;98760.69;;;30.93;44.19
73171;BME280;61381;50.118;19.962;2023-08-24T10:38:29;98752.53;;;30.82;43.08
73171;BME280;61381;50.118;19.962;2023-08-24T10:43:34;98736.34;;;30.12;43.62
73171;BME280;61381;50.118;19.962;2023-08-24T10:49:03;98739.25;;;29.97;43.47
73171;BME280;61381;50.118;19.962;2023-08-24T10:54:04;98735.88;;;30.86;40.24
73171;BME280;61381;50.118;19.962;2023-08-24T10:59:15;98728.47;;;31.10;41.40
73171;BME280;61381;50.118;19.962;2023-08-24T11:04:18;98728.06;;;31.11;38.99
73171;BME280;61381;50.118;19.962;2023-08-24T11:09:19;98726.34;;;31.72;40.82
73171;BME280;61381;50.118;19.962;2023-08-24T11:14:20;98722.53;;;31.86;38.48
73171;BME280;61381;50.118;19.962;2023-08-24T11:19:23;98729.53;;;32.18;38.87
73171;BME280;61381;50.118;19.962;2023-08-24T11:24:24;98716.59;;;32.31;36.83
73171;BME280;61381;50.118;19.962;2023-08-24T11:29:25;98717.91;;;32.63;38.15
73171;BME280;61381;50.118;19.962;2023-08-24T11:34:28;98709.81;;;32.52;38.64
73171;BME280;61381;50.118;19.962;2023-08-24T11:39:29;98703.25;;;32.03;36.64
73171;BME280;61381;50.118;19.962;2023-08-24T11:44:44;98705.69;;;32.81;37.51
73171;BME280;61381;50.118;19.962;2023-08-24T11:49:47;98700.66;;;33.29;34.94
73171;BME280;61381;50.118;19.962;2023-08-24T11:54:51;98692.06;;;32.30;35.83
73171;BME280;61381;50.118;19.962;2023-08-24T11:59:52;98703.34;;;32.59;36.42
73171;BME280;61381;50.118;19.962;2023-08-24T12:04:54;98697.06;;;31.95;35.83
73171;BME280;61381;50.118;19.962;2023-08-24T12:09:55;98692.25;;;32.19;35.01
73171;BME280;61381;50.118;19.962;2023-08-24T12:14:56;98681.81;;;32.27;34.43
73171;BME280;61381;50.118;19.962;2023-08-24T12:19:59;98673.34;;;32.91;33.73
73171;BME280;61381;50.118;19.962;2023-08-24T12:25:01;98668.41;;;32.62;36.42
73171;BME280;61381;50.118;19.962;2023-08-24T12:30:02;98672.19;;;32.71;33.99
73171;BME280;61381;50.118;19.962;2023-08-24T12:35:05;98665.63;;;32.62;32.94
73171;BME280;61381;50.118;19.962;2023-08-24T12:40:07;98670.75;;;33.00;31.43
73171;BME280;61381;50.118;19.962;2023-08-24T12:45:08;98658.66;;;32.74;32.88
73171;BME280;61381;50.118;19.962;2023-08-24T12:50:11;98668.41;;;32.01;32.33
73171;BME280;61381;50.118;19.962;2023-08-24T12:55:12;98654.25;;;32.76;33.35
73171;BME280;61381;50.118;19.962;2023-08-24T13:00:14;98642.69;;;32.41;35.61
73171;BME280;61381;50.118;19.962;2023-08-24T13:05:19;98629.78;;;32.71;33.08
73171;BME280;61381;50.118;19.962;2023-08-24T13:10:20;98624.75;;;32.66;32.45
73171;BME280;61381;50.118;19.962;2023-08-24T13:15:21;98634.28;;;31.85;33.12
73171;BME280;61381;50.118;19.962;2023-08-24T13:20:23;98626.25;;;33.03;32.19
73171;BME280;61381;50.118;19.962;2023-08-24T13:25:24;98620.25;;;32.72;31.49
73171;BME280;61381;50.118;19.962;2023-08-24T13:30:25;98619.22;;;33.32;33.48
73171;BME280;61381;50.118;19.962;2023-08-24T13:35:29;98617.75;;;33.11;32.68
73171;BME280;61381;50.118;19.962;2023-08-24T13:40:31;98611.97;;;32.32;32.41
73171;BME280;61381;50.118;19.962;2023-08-24T13:45:32;98607.56;;;31.94;33.80
73171;BME280;61381;50.118;19.962;2023-08-24T13:50:34;98612.22;;;31.57;33.90
73171;BME280;61381;50.118;19.962;2023-08-24T13:55:35;98610.00;;;32.12;33.91
73171;BME280;61381;50.118;19.962;2023-08-24T14:00:36;98602.53;;;32.29;33.74
73171;BME280;61381;50.118;19.962;2023-08-24T14:05:39;98600.03;;;32.88;32.00
73171;BME280;61381;50.118;19.962;2023-08-24T14:10:40;98602.66;;;32.42;32.95
73171;BME280;61381;50.118;19.962;2023-08-24T14:15:43;98592.06;;;32.90;32.42
73171;BME280;61381;50.118;19.962;2023-08-24T14:20:46;98576.44;;;32.80;33.43
73171;BME280;61381;50.118;19.962;2023-08-24T14:25:47;98589.81;;;32.68;34.42
73171;BME280;61381;50.118;19.962;2023-08-24T14:35:52;98578.31;;;32.13;34.99
73171;BME280;61381;50.118;19.962;2023-08-24T14:40:53;98574.03;;;32.29;36.30
73171;BME280;61381;50.118;19.962;2023-08-24T14:45:54;98573.97;;;31.92;37.38
73171;BME280;61381;50.118;19.962;2023-08-24T14:50:56;98565.69;;;31.25;39.30
73171;BME280;61381;50.118;19.962;2023-08-24T14:55:58;98566.50;;;30.74;41.10
73171;BME280;61381;50.118;19.962;2023-08-24T15:00:59;98580.44;;;30.40;41.69
73171;BME280;61381;50.118;19.962;2023-08-24T15:06:02;98574.44;;;30.14;42.80
73171;BME280;61381;50.118;19.962;2023-08-24T15:11:03;98559.41;;;30.15;41.99
73171;BME280;61381;50.118;19.962;2023-08-24T15:16:04;98564.38;;;29.97;42.83
73171;BME280;61381;50.118;19.962;2023-08-24T15:21:06;98544.50;;;29.75;44.58
73171;BME280;61381;50.118;19.962;2023-08-24T15:26:07;98547.09;;;29.55;46.48
73171;BME280;61381;50.118;19.962;2023-08-24T15:31:08;98546.56;;;29.67;45.24
73171;BME280;61381;50.118;19.962;2023-08-24T15:36:10;98545.81;;;29.63;46.10
73171;BME280;61381;50.118;19.962;2023-08-24T15:41:11;98533.34;;;29.85;45.45
73171;BME280;61381;50.118;19.962;2023-08-24T15:46:12;98533.91;;;30.04;44.54
73171;BME280;61381;50.118;19.962;2023-08-24T15:51:14;98520.00;;;30.11;46.41
73171;BME280;61381;50.118;19.962;2023-08-24T15:56:15;98517.09;;;29.91;44.17
73171;BME280;61381;50.118;19.962;2023-08-24T16:01:16;98519.38;;;30.27;44.68
73171;BME280;61381;50.118;19.962;2023-08-24T16:06:19;98502.19;;;29.85;44.25
73171;BME280;61381;50.118;19.962;2023-08-24T16:11:20;98499.25;;;29.65;43.69
73171;BME280;61381;50.118;19.962;2023-08-24T16:16:21;98509.69;;;29.84;43.38
73171;BME280;61381;50.118;19.962;2023-08-24T16:21:33;98500.97;;;29.86;43.25
73171;BME280;61381;50.118;19.962;2023-08-24T16:26:51;98497.06;;;29.80;44.49
73171;BME280;61381;50.118;19.962;2023-08-24T16:31:52;98496.09;;;29.63;44.69
73171;BME280;61381;50.118;19.962;2023-08-24T16:36:55;98491.25;;;29.74;45.75
73171;BME280;61381;50.118;19.962;2023-08-24T16:41:56;98494.91;;;29.29;46.51
73171;BME280;61381;50.118;19.962;2023-08-24T16:46:56;98472.69;;;29.02;48.55
73171;BME280;61381;50.118;19.962;2023-08-24T16:51:59;98470.72;;;29.03;48.76
73171;BME280;61381;50.118;19.962;2023-08-24T16:57:00;98484.31;;;28.79;48.80
73171;BME280;61381;50.118;19.962;2023-08-24T17:02:01;98480.16;;;28.53;49.58
73171;BME280;61381;50.118;19.962;2023-08-24T17:07:03;98490.88;;;28.47;49.84
73171;BME280;61381;50.118;19.962;2023-08-24T17:12:05;98492.94;;;28.32;48.90
73171;BME280;61381;50.118;19.962;2023-08-24T17:17:05;98493.13;;;27.92;51.81
73171;BME280;61381;50.118;19.962;2023-08-24T17:22:08;98486.84;;;27.92;55.02
73171;BME280;61381;50.118;19.962;2023-08-24T17:27:09;98486.66;;;27.43;57.78
73171;BME280;61381;50.118;19.962;2023-08-24T17:32:10;98471.75;;;27.01;56.54
73171;BME280;61381;50.118;19.962;2023-08-24T17:37:12;98457.63;;;27.02;60.40
73171;BME280;61381;50.118;19.962;2023-08-24T17:42:13;98463.88;;;26.13;65.15
73171;BME280;61381;50.118;19.962;2023-08-24T17:47:14;98472.50;;;26.15;64.54
73171;BME280;61381;50.118;19.962;2023-08-24T17:52:16;98464.09;;;25.64;67.47
73171;BME280;61381;50.118;19.962;2023-08-24T17:57:17;98477.47;;;25.03;67.13
73171;BME280;61381;50.118;19.962;2023-08-24T18:02:18;98483.56;;;24.79;69.43
73171;BME280;61381;50.118;19.962;2023-08-24T18:07:20;98494.66;;;24.52;72.73
73171;BME280;61381;50.118;19.962;2023-08-24T18:12:22;98499.19;;;23.99;73.86
73171;BME280;61381;50.118;19.962;2023-08-24T18:17:23;98512.00;;;23.61;77.16
73171;BME280;61381;50.118;19.962;2023-08-24T18:22:25;98518.25;;;23.31;78.93
73171;BME280;61381;50.118;19.962;2023-08-24T18:27:26;98507.66;;;23.26;77.75
73171;BME280;61381;50.118;19.962;2023-08-24T18:32:27;98504.22;;;23.33;75.90
73171;BME280;61381;50.118;19.962;2023-08-24T18:37:29;98516.94;;;23.48;75.38
73171;BME280;61381;50.118;19.962;2023-08-24T18:42:30;98521.41;;;23.64;74.29
73171;BME280;61381;50.118;19.962;2023-08-24T18:47:31;98501.78;;;23.55;76.43
73171;BME280;61381;50.118;19.962;2023-08-24T18:52:33;98526.66;;;23.19;82.86
73171;BME280;61381;50.118;19.962;2023-08-24T18:57:34;98517.81;;;22.79;85.83
73171;BME280;61381;50.118;19.962;2023-08-24T19:02:35;98512.50;;;22.64;87.75
73171;BME280;61381;50.118;19.962;2023-08-24T19:07:37;98513.78;;;22.27;90.32
73171;BME280;61381;50.118;19.962;2023-08-24T19:12:38;98508.13;;;21.97;92.84
73171;BME280;61381;50.118;19.962;2023-08-24T19:17:39;98504.25;;;21.98;93.24
73171;BME280;61381;50.118;19.962;2023-08-24T19:22:42;98501.38;;;21.90;93.38
73171;BME280;61381;50.118;19.962;2023-08-24T19:27:42;98501.03;;;21.92;93.92
73171;BME280;61381;50.118;19.962;2023-08-24T19:32:44;98497.50;;;21.52;97.92
73171;BME280;61381;50.118;19.962;2023-08-24T19:37:47;98491.34;;;21.40;98.86
73171;BME280;61381;50.118;19.962;2023-08-24T19:42:55;98490.56;;;21.39;99.65
73171;BME280;61381;50.118;19.962;2023-08-24T19:47:57;98493.19;;;21.00;100.00
73171;BME280;61381;50.118;19.962;2023-08-24T19:52:59;98494.75;;;21.17;98.14
73171;BME280;61381;50.118;19.962;2023-08-24T19:58:00;98493.38;;;21.07;97.27
73171;BME280;61381;50.118;19.962;2023-08-24T20:03:01;98488.00;;;20.95;96.94
73171;BME280;61381;50.118;19.962;2023-08-24T20:08:04;98489.66;;;21.15;96.03
73171;BME280;61381;50.118;19.962;2023-08-24T20:13:05;98479.28;;;21.05;96.41
73171;BME280;61381;50.118;19.962;2023-08-24T20:18:06;98478.63;;;20.76;98.83
73171;BME280;61381;50.118;19.962;2023-08-24T20:23:08;98484.00;;;20.73;100.00
73171;BME280;61381;50.118;19.962;2023-08-24T20:28:09;98475.25;;;20.35;100.00
73171;BME280;61381;50.118;19.962;2023-08-24T20:33:10;98469.44;;;20.37;100.00
73171;BME280;61381;50.118;19.962;2023-08-24T20:38:12;98472.97;;;20.37;100.00
73171;BME280;61381;50.118;19.962;2023-08-24T20:43:13;98475.94;;;20.32;100.00
73171;BME280;61381;50.118;19.962;2023-08-24T20:48:14;98488.22;;;20.10;100.00
73171;BME280;61381;50.118;19.962;2023-08-24T20:53:17;98491.06;;;20.01;100.00
73171;BME280;61381;50.118;19.962;2023-08-24T20:58:17;98478.84;;;19.67;100.00
73171;BME280;61381;50.118;19.962;2023-08-24T21:03:18;98479.28;;;19.69;100.00
73171;BME280;61381;50.118;19.962;2023-08-24T21:08:21;98475.78;;;19.68;100.00
73171;BME280;61381;50.118;19.962;2023-08-24T21:13:22;98475.44;;;19.70;100.00
73171;BME280;61381;50.118;19.962;2023-08-24T21:18:23;98469.03;;;19.50;100.00
73171;BME280;61381;50.118;19.962;2023-08-24T21:23:25;98469.44;;;19.64;100.00
73171;BME280;61381;50.118;19.962;2023-08-24T21:28:26;98471.56;;;19.71;100.00
73171;BME280;61381;50.118;19.962;2023-08-24T21:33:27;98455.25;;;19.42;100.00
73171;BME280;61381;50.118;19.962;2023-08-24T21:38:29;98467.94;;;19.26;100.00
73171;BME280;61381;50.118;19.962;2023-08-24T21:43:30;98472.25;;;19.27;100.00
73171;BME280;61381;50.118;19.962;2023-08-24T21:48:31;98461.41;;;19.27;100.00
73171;BME280;61381;50.118;19.962;2023-08-24T21:53:33;98451.13;;;19.20;100.00
73171;BME280;61381;50.118;19.962;2023-08-24T21:58:34;98448.63;;;19.15;100.00
73171;BME280;61381;50.118;19.962;2023-08-24T22:03:35;98441.75;;;18.93;100.00
73171;BME280;61381;50.118;19.962;2023-08-24T22:08:37;98429.31;;;18.92;100.00
73171;BME280;61381;50.118;19.962;2023-08-24T22:13:39;98434.84;;;18.96;100.00
73171;BME280;61381;50.118;19.962;2023-08-24T22:18:40;98428.41;;;18.88;100.00
73171;BME280;61381;50.118;19.962;2023-08-24T22:23:42;98419.00;;;18.73;100.00
73171;BME280;61381;50.118;19.962;2023-08-24T22:28:43;98406.22;;;18.61;100.00
73171;BME280;61381;50.118;19.962;2023-08-24T22:33:44;98400.47;;;18.63;100.00
73171;BME280;61381;50.118;19.962;2023-08-24T22:38:46;98407.16;;;18.65;100.00
73171;BME280;61381;50.118;19.962;2023-08-24T22:43:47;98398.66;;;18.54;100.00
73171;BME280;61381;50.118;19.962;2023-08-24T22:48:48;98387.47;;;18.44;100.00
73171;BME280;61381;50.118;19.962;2023-08-24T22:53:50;98384.63;;;18.40;100.00
73171;BME280;61381;50.118;19.962;2023-08-24T22:58:51;98370.53;;;18.47;100.00
73171;BME280;61381;50.118;19.962;2023-08-24T23:03:52;98369.94;;;18.53;100.00
73171;BME280;61381;50.118;19.962;2023-08-24T23:08:54;98366.66;;;18.48;100.00
73171;BME280;61381;50.118;19.962;2023-08-24T23:13:55;98353.44;;;18.46;100.00
73171;BME280;61381;50.118;19.962;2023-08-24T23:18:56;98351.97;;;18.49;100.00
73171;BME280;61381;50.118;19.962;2023-08-24T23:23:58;98361.13;;;18.44;100.00
73171;BME280;61381;50.118;19.962;2023-08-24T23:28:59;98362.16;;;18.40;100.00
73171;BME280;61381;50.118;19.962;2023-08-24T23:34:00;98357.16;;;18.42;100.00
73171;BME280;61381;50.118;19.962;2023-08-24T23:39:03;98355.81;;;18.35;100.00
73171;BME280;61381;50.118;19.962;2023-08-24T23:44:04;98355.13;;;18.39;100.00
73171;BME280;61381;50.118;19.962;2023-08-24T23:49:04;98360.78;;;18.09;100.00
73171;BME280;61381;50.118;19.962;2023-08-24T23:54:07;98359.53;;;18.18;100.00
73171;BME280;61381;50.118;19.962;2023-08-24T23:59:08;98376.16;;;18.17;100.00
